^^

..:: Storico WU ::..




Lo storico viene creato da WUnderground con i dati che la stazione Meteomincio invia al loro server. L' aggiornamento viene fatto ogni 5 minuti circa, tuttavia possono esserci intervalli pi¨ ampi a causa di errori, interruzioni di servizio o problemi nell' invio tramite FTP.


Storico stazione MeteoMincio
Giorno Sommario per Gennaio 28, 2022 Unità:  Inglese    Metrico   Entrambi
Giorno Settimana Mese Anno
  Max: Min: Media:
Temperatura: 40.1 °F 30.6 °F 35.8 °F
Dew Point: 38.1 °F 30 °F 34.9 °F
Umidità: 99% 91% 97%
Velocità vento: 9.3mph 0mph 3.8mph
Raffica: 13mph - -
Direzione- - SW
Pressione: 30.4 in 30.2 in -
Precipitazioni: 0 in    
 
 
Tabulato Dati per Gennaio 28, 2022
Ora Temperatura Dew Point Pressione Direzione Velocità vento Raffica Umidità Intensità pioggia (oraria) Info solare Situazione
00:04 35.8 °F 35.1 °F 30.3 in West 4.8 mph 8 mph 97% 0 in 0 W/m2
00:09 35.8 °F 35.1 °F 30.3 in West 3.7 mph 7 mph 97% 0 in 0 W/m2
00:14 35.8 °F 35.1 °F 30.3 in WNW 4 mph 6 mph 97.2% 0 in 0 W/m2
00:19 35.8 °F 35.2 °F 30.3 in West 3.3 mph 6 mph 98% 0 in 0 W/m2
00:24 35.8 °F 35.2 °F 30.3 in WSW 4.5 mph 7 mph 98% 0 in 0 W/m2
00:29 35.8 °F 35.2 °F 30.3 in WSW 4.2 mph 7 mph 98% 0 in 0 W/m2
00:34 35.6 °F 35.2 °F 30.3 in WSW 4.5 mph 7 mph 98% 0 in 0 W/m2
00:39 35.6 °F 34.9 °F 30.3 in West 5.1 mph 8.1 mph 97.4% 0 in 0 W/m2
00:44 35.6 °F 34.7 °F 30.3 in West 4.5 mph 8 mph 97% 0 in 0 W/m2
00:49 35.4 °F 34.7 °F 30.3 in West 5.3 mph 9 mph 97% 0 in 0 W/m2
00:54 35.4 °F 34.7 °F 30.3 in West 6.5 mph 9.2 mph 97.4% 0 in 0 W/m2
00:59 35.2 °F 34.7 °F 30.3 in West 5.3 mph 9 mph 97.8% 0 in 0 W/m2
01:04 35.2 °F 34.9 °F 30.3 in WSW 5.3 mph 8.1 mph 98% 0 in 0 W/m2
01:09 35.2 °F 34.9 °F 30.3 in West 4.3 mph 8 mph 98% 0 in 0 W/m2
01:14 35.2 °F 34.9 °F 30.3 in West 4.7 mph 8.1 mph 98% 0 in 0 W/m2
01:19 35.4 °F 34.9 °F 30.3 in West 5.3 mph 8.1 mph 98% 0 in 0 W/m2
01:24 35.4 °F 34.9 °F 30.3 in West 5.6 mph 10.4 mph 98% 0 in 0 W/m2
01:29 35.2 °F 34.9 °F 30.3 in WSW 5.7 mph 10 mph 98% 0 in 0 W/m2
01:34 35.2 °F 34.7 °F 30.3 in WSW 5.8 mph 9.2 mph 98% 0 in 0 W/m2
01:39 35.1 °F 34.7 °F 30.3 in WSW 5.8 mph 9 mph 98% 0 in 0 W/m2
01:44 35.1 °F 34.5 °F 30.3 in WSW 5.8 mph 9.2 mph 98% 0 in 0 W/m2
01:49 34.9 °F 34.5 °F 30.3 in WSW 5.7 mph 9.2 mph 98% 0 in 0 W/m2
01:54 34.9 °F 34.3 °F 30.3 in WSW 5.1 mph 9 mph 98% 0 in 0 W/m2
01:59 34.9 °F 34.3 °F 30.3 in WSW 5 mph 8 mph 98% 0 in 0 W/m2
02:04 34.9 °F 34.3 °F 30.3 in WSW 5.1 mph 8.1 mph 98% 0 in 0 W/m2
02:09 34.9 °F 34.5 °F 30.3 in WSW 5.5 mph 9.2 mph 98% 0 in 0 W/m2
02:14 35.1 °F 34.5 °F 30.3 in SW 5.5 mph 9.2 mph 98% 0 in 0 W/m2
02:19 35.1 °F 34.5 °F 30.3 in WSW 6.8 mph 9.2 mph 98% 0 in 0 W/m2
02:24 35.1 °F 34.5 °F 30.3 in SW 5.9 mph 9 mph 98% 0 in 0 W/m2
02:29 35.1 °F 34.5 °F 30.3 in SW 5.5 mph 8.1 mph 98% 0 in 0 W/m2
02:34 35.1 °F 34.5 °F 30.3 in WSW 4.5 mph 8.1 mph 98% 0 in 0 W/m2
02:39 35.1 °F 34.5 °F 30.3 in WSW 5.4 mph 9.2 mph 98% 0 in 0 W/m2
02:44 35.1 °F 34.5 °F 30.3 in WSW 6.3 mph 11.5 mph 98% 0 in 0 W/m2
02:49 35.1 °F 34.5 °F 30.3 in WSW 5.3 mph 12 mph 98% 0 in 0 W/m2
02:54 35.1 °F 34.5 °F 30.3 in WSW 5.2 mph 8.1 mph 98% 0 in 0 W/m2
02:59 35.1 °F 34.7 °F 30.3 in WSW 4.6 mph 8 mph 98% 0 in 0 W/m2
03:04 35.2 °F 34.7 °F 30.3 in WSW 5.8 mph 8.1 mph 98% 0 in 0 W/m2
03:09 35.2 °F 34.7 °F 30.3 in West 5.1 mph 10 mph 98% 0 in 0 W/m2
03:14 35.2 °F 34.7 °F 30.3 in West 6.2 mph 10.4 mph 98% 0 in 0 W/m2
03:19 35.1 °F 34.7 °F 30.3 in West 5.8 mph 10 mph 98% 0 in 0 W/m2
03:24 35.1 °F 34.5 °F 30.2 in West 7.6 mph 11.5 mph 98% 0 in 0 W/m2
03:29 34.7 °F 34.3 °F 30.2 in West 7.5 mph 12 mph 98% 0 in 0 W/m2
03:34 34.5 °F 34.2 °F 30.2 in West 7.8 mph 12 mph 98% 0 in 0 W/m2
03:39 34.5 °F 34 °F 30.2 in West 7.1 mph 12 mph 98% 0 in 0 W/m2
03:44 34.3 °F 33.8 °F 30.2 in West 7.3 mph 11.5 mph 98% 0 in 0 W/m2
03:49 34.3 °F 33.8 °F 30.2 in WSW 8.2 mph 12 mph 98% 0 in 0 W/m2
03:54 34.2 °F 33.8 °F 30.2 in West 6.2 mph 12 mph 98% 0 in 0 W/m2
03:59 34.2 °F 33.6 °F 30.2 in West 6.6 mph 13 mph 98% 0 in 0 W/m2
04:04 34.2 °F 33.6 °F 30.2 in West 8.4 mph 13 mph 98% 0 in 0 W/m2
04:09 34.2 °F 33.6 °F 30.2 in West 8.1 mph 12 mph 98% 0 in 0 W/m2
04:14 34.2 °F 33.6 °F 30.2 in West 7.1 mph 12 mph 98% 0 in 0 W/m2
04:19 34.2 °F 33.6 °F 30.2 in West 7.3 mph 12 mph 98% 0 in 0 W/m2
04:24 34.2 °F 33.8 °F 30.2 in West 6.4 mph 10 mph 98% 0 in 0 W/m2
04:29 34.3 °F 33.8 °F 30.2 in West 5.1 mph 10 mph 98% 0 in 0 W/m2
04:34 34.3 °F 34 °F 30.2 in WSW 6 mph 10.4 mph 98% 0 in 0 W/m2
04:39 34.5 °F 34 °F 30.2 in West 6 mph 10.4 mph 98% 0 in 0 W/m2
04:44 34.5 °F 34 °F 30.2 in WSW 7.3 mph 11.5 mph 98% 0 in 0 W/m2
04:49 34.7 °F 34.2 °F 30.2 in West 9.3 mph 13 mph 98% 0 in 0 W/m2
04:54 34.7 °F 34.2 °F 30.2 in West 7.5 mph 13 mph 98% 0 in 0 W/m2
04:59 34.7 °F 34.2 °F 30.2 in West 6 mph 12 mph 98% 0 in 0 W/m2
05:04 34.7 °F 34.2 °F 30.2 in West 6.4 mph 10.4 mph 98% 0 in 0 W/m2
05:09 34.9 °F 34.3 °F 30.2 in West 5.9 mph 10.4 mph 98% 0 in 0 W/m2
05:14 34.9 °F 34.5 °F 30.2 in West 5 mph 10 mph 98.2% 0 in 0 W/m2
05:19 35.1 °F 34.5 °F 30.2 in West 6.2 mph 11.5 mph 98.1% 0 in 0 W/m2
05:24 35.1 °F 34.7 °F 30.2 in West 8.1 mph 12 mph 98.6% 0 in 0 W/m2
05:29 35.1 °F 34.5 °F 30.2 in West 7.7 mph 12 mph 98.5% 0 in 0 W/m2
05:34 35.1 °F 34.7 °F 30.2 in West 6.6 mph 12 mph 98.6% 0 in 0 W/m2
05:39 35.1 °F 34.5 °F 30.2 in West 5.3 mph 12 mph 98.3% 0 in 0 W/m2
05:44 35.1 °F 34.7 °F 30.2 in West 5.1 mph 8.1 mph 98.6% 0 in 0 W/m2
05:49 35.1 °F 34.7 °F 30.2 in West 4.5 mph 8.1 mph 98.7% 0 in 0 W/m2
05:54 35.1 °F 34.9 °F 30.2 in West 6.5 mph 11.5 mph 99% 0 in 0 W/m2
05:59 35.2 °F 34.9 °F 30.2 in West 5.2 mph 12 mph 98.6% 0 in 0 W/m2
06:04 35.2 °F 34.7 °F 30.2 in West 6 mph 10.4 mph 98.4% 0 in 0 W/m2
06:09 35.2 °F 34.9 °F 30.2 in West 5.2 mph 10 mph 98.8% 0 in 0 W/m2
06:14 35.1 °F 34.9 °F 30.2 in West 5.1 mph 9.2 mph 99% 0 in 0 W/m2
06:19 35.1 °F 34.9 °F 30.2 in West 5 mph 9.2 mph 99% 0 in 0 W/m2
06:24 35.1 °F 34.9 °F 30.2 in West 4 mph 7 mph 99% 0 in 0 W/m2
06:29 35.1 °F 34.9 °F 30.2 in WNW 4.3 mph 8.1 mph 99% 0 in 0 W/m2
06:34 35.1 °F 34.9 °F 30.2 in West 5.6 mph 11.5 mph 99% 0 in 0 W/m2
06:39 35.1 °F 34.9 °F 30.2 in West 7.2 mph 12 mph 99% 0 in 0 W/m2
06:44 35.1 °F 34.9 °F 30.2 in West 6 mph 11.5 mph 99% 0 in 0 W/m2
06:49 35.1 °F 34.7 °F 30.2 in West 4.4 mph 12 mph 99% 0 in 0 W/m2
06:54 35.1 °F 34.5 °F 30.2 in West 5.8 mph 10.4 mph 98.3% 0 in 0 W/m2
06:59 35.1 °F 34.5 °F 30.2 in West 5.3 mph 10 mph 98.4% 0 in 0 W/m2
07:04 34.9 °F 34.5 °F 30.2 in West 2.7 mph 9 mph 98.3% 0 in 0 W/m2
07:09 34.9 °F 34.3 °F 30.2 in WNW 3 mph 4 mph 98.2% 0 in 0 W/m2
07:14 34.9 °F 34.3 °F 30.2 in West 3.4 mph 6 mph 98% 0 in 0 W/m2
07:19 34.7 °F 34.3 °F 30.2 in WNW 4 mph 6 mph 98.3% 0 in 0 W/m2
07:24 34.7 °F 34.3 °F 30.2 in West 3.2 mph 6 mph 99% 0 in 0 W/m2
07:29 34.5 °F 34.3 °F 30.2 in WSW 3.7 mph 6 mph 99% 0 in 0 W/m2
07:34 34.5 °F 34.2 °F 30.2 in WSW 3.6 mph 6 mph 99% 0 in 0 W/m2
07:39 34.5 °F 34.2 °F 30.2 in West 4.1 mph 6 mph 98.9% 0 in 0 W/m2
07:44 34.3 °F 34 °F 30.2 in WSW 3.1 mph 6 mph 98.5% 0 in 0 W/m2
07:49 34.3 °F 33.8 °F 30.2 in SW 1.9 mph 5 mph 98% 0 in 0 W/m2
07:54 34.3 °F 33.8 °F 30.2 in WNW 2.9 mph 6 mph 98% 0 in 0 W/m2
07:59 34.3 °F 33.8 °F 30.3 in WNW 2.3 mph 5 mph 98% 0 in 0 W/m2
08:04 34.3 °F 33.8 °F 30.3 in West 2.6 mph 5 mph 98% 0 in 0 W/m2
08:09 34.3 °F 33.8 °F 30.3 in WNW 1.4 mph 4 mph 98% 0 in 0 W/m2
08:14 34.3 °F 33.8 °F 30.3 in Calm   3 mph 98% 0 in 0 W/m2
08:19 34.3 °F 33.8 °F 30.3 in NE 0.1 mph 1.2 mph 98% 0 in 0 W/m2
08:24 34.3 °F 33.8 °F 30.3 in WSW 0.5 mph 3.5 mph 98% 0 in 11 W/m2
08:29 34.3 °F 33.8 °F 30.3 in WSW 0.5 mph 3.5 mph 98% 0 in 9 W/m2
08:34 34.3 °F 34 °F 30.3 in WSW 1.2 mph 3.5 mph 98% 0 in 7 W/m2
08:39 34.3 °F 34 °F 30.3 in SSW 1.5 mph 4 mph 98% 0 in 14 W/m2
08:44 34.3 °F 33.8 °F 30.3 in SSW 1 mph 4 mph 98% 0 in 25 W/m2
08:49 34.3 °F 33.8 °F 30.3 in SSE 0.7 mph 3.5 mph 98% 0 in 11 W/m2
08:54 34.3 °F 33.8 °F 30.3 in SSW 0.2 mph 3 mph 98% 0 in 26 W/m2
08:59 34.3 °F 33.8 °F 30.3 in SSW 0.8 mph 2.3 mph 98% 0 in 32 W/m2
09:04 34.3 °F 34 °F 30.3 in SSW 0.4 mph 2.3 mph 98% 0 in 37 W/m2
09:09 34.3 °F 34 °F 30.3 in SSW 1.4 mph 3.5 mph 98% 0 in 49 W/m2
09:14 34.5 °F 34.2 °F 30.3 in South 1.1 mph 3 mph 98.7% 0 in 40 W/m2
09:19 34.5 °F 34.3 °F 30.3 in SE 2.1 mph 6 mph 99% 0 in 79 W/m2
09:24 34.7 °F 34.3 °F 30.3 in SW 1.1 mph 6 mph 99% 0 in 40 W/m2
09:29 34.7 °F 34.5 °F 30.3 in SSE 1.7 mph 3.5 mph 99% 0 in 40 W/m2
09:34 34.9 °F 34.5 °F 30.3 in SE 1.4 mph 3.5 mph 99% 0 in 47 W/m2
09:39 35.1 °F 34.7 °F 30.3 in ESE 2 mph 5 mph 99% 0 in 51 W/m2
09:44 35.1 °F 34.9 °F 30.3 in SE 2.1 mph 4 mph 99% 0 in 47 W/m2
09:49 35.2 °F 34.9 °F 30.3 in South 2.7 mph 4 mph 99% 0 in 69 W/m2
09:54 35.4 °F 35.1 °F 30.3 in SSE 2.1 mph 4 mph 99% 0 in 83 W/m2
09:59 35.6 °F 35.2 °F 30.3 in ESE 2.9 mph 7 mph 99% 0 in 83 W/m2
10:04 35.8 °F 35.4 °F 30.3 in ESE 3.3 mph 7 mph 99% 0 in 70 W/m2
10:09 35.8 °F 35.6 °F 30.3 in ESE 4 mph 9 mph 99% 0 in 77 W/m2
10:14 36 °F 35.8 °F 30.3 in East 5.2 mph 9.2 mph 99% 0 in 69 W/m2
10:19 36.3 °F 36 °F 30.3 in East 3.1 mph 5 mph 99% 0 in 60 W/m2
10:24 36.5 °F 36.1 °F 30.3 in East 4 mph 7 mph 99% 0 in 69 W/m2
10:29 36.7 °F 36.5 °F 30.3 in ESE 2.6 mph 7 mph 99% 0 in 62 W/m2
10:34 36.9 °F 36.7 °F 30.3 in ESE 4.5 mph 7 mph 99% 0 in 76 W/m2
10:39 37 °F 36.9 °F 30.4 in ESE 6.2 mph 9.2 mph 99% 0 in 74 W/m2
10:44 37 °F 36.9 °F 30.4 in ESE 7 mph 10.4 mph 99% 0 in 74 W/m2
10:49 37.2 °F 36.9 °F 30.4 in SE 5.4 mph 10 mph 99% 0 in 100 W/m2
10:54 37.4 °F 37 °F 30.4 in ESE 6.5 mph 9.2 mph 99% 0 in 144 W/m2
10:59 37.8 °F 37.2 °F 30.4 in ESE 5.8 mph 9.2 mph 98.2% 0 in 144 W/m2
11:04 37.9 °F 37.2 °F 30.4 in SE 4.4 mph 9.2 mph 96.9% 0 in 229 W/m2
11:09 38.5 °F 37.2 °F 30.4 in SE 3.9 mph 9 mph 95.3% 0 in 234 W/m2
11:14 38.8 °F 37.2 °F 30.4 in SE 5.6 mph 12 mph 93.9% 0 in 408 W/m2
11:19 39.2 °F 37.2 °F 30.4 in SE 3.9 mph 12 mph 92.2% 0 in 355 W/m2
11:24 39.4 °F 37.2 °F 30.4 in SSE 3.6 mph 10 mph 92.2% 0 in 378 W/m2
11:29 39.6 °F 37.4 °F 30.4 in SE 5.2 mph 11.5 mph 91.9% 0 in 332 W/m2
11:34 39.6 °F 37.4 °F 30.4 in ESE 5.7 mph 12 mph 91.7% 0 in 308 W/m2
11:39 39.4 °F 37 °F 30.4 in SE 6 mph 11.5 mph 91.2% 0 in 225 W/m2
11:44 39.6 °F 37.2 °F 30.4 in SE 4.6 mph 12 mph 91.3% 0 in 185 W/m2
11:49 39.6 °F 37.2 °F 30.4 in SE 4.5 mph 10 mph 91.3% 0 in 227 W/m2
11:54 39.6 °F 37 °F 30.4 in South 5 mph 13 mph 91% 0 in 181 W/m2
11:59 39.4 °F 37.2 °F 30.4 in SSE 4.1 mph 13 mph 91.3% 0 in 169 W/m2
12:04 39.6 °F 37.2 °F 30.4 in South 5.9 mph 13 mph 91.2% 0 in 171 W/m2
12:09 39.2 °F 37.2 °F 30.4 in South 7.1 mph 13 mph 92% 0 in 144 W/m2
12:14 39.2 °F 37.2 °F 30.4 in SSW 6.1 mph 13 mph 92.9% 0 in 185 W/m2
12:19 39.2 °F 37 °F 30.4 in SSW 6.5 mph 10.4 mph 92% 0 in 158 W/m2
12:24 38.8 °F 37 °F 30.4 in SSW 6.2 mph 10.4 mph 92.9% 0 in 105 W/m2
12:29 38.7 °F 37 °F 30.4 in South 5.7 mph 10 mph 93.8% 0 in 148 W/m2
12:34 38.8 °F 37 °F 30.4 in South 4.7 mph 9 mph 93.2% 0 in 167 W/m2
12:39 39.2 °F 37.2 °F 30.4 in SW 4.7 mph 9 mph 93.2% 0 in 123 W/m2
12:44 39.2 °F 37.4 °F 30.4 in SW 7 mph 11.5 mph 93.5% 0 in 206 W/m2
12:49 39.2 °F 37.6 °F 30.4 in WSW 6.8 mph 12 mph 93.8% 0 in 246 W/m2
12:54 39.2 °F 37.4 °F 30.4 in WSW 6.5 mph 10.4 mph 93% 0 in 264 W/m2
12:59 39.2 °F 37.4 °F 30.4 in WSW 5.1 mph 10 mph 93% 0 in 206 W/m2
13:04 39.4 °F 37.6 °F 30.4 in West 4.3 mph 8 mph 93% 0 in 193 W/m2
13:09 39.4 °F 37.4 °F 30.4 in West 4 mph 8.1 mph 92.6% 0 in 193 W/m2
13:14 39.6 °F 37.8 °F 30.4 in SW 3.9 mph 8 mph 93.3% 0 in 148 W/m2
13:19 39.4 °F 37.4 °F 30.4 in SSW 3.7 mph 7 mph 93% 0 in 148 W/m2
13:24 39.4 °F 37.6 °F 30.4 in WSW 3.4 mph 7 mph 93.4% 0 in 102 W/m2
13:29 39.6 °F 37.9 °F 30.4 in SW 5 mph 7 mph 94% 0 in 125 W/m2
13:34 39.4 °F 37.6 °F 30.3 in WSW 3.7 mph 7 mph 93.1% 0 in 141 W/m2
13:39 39.4 °F 37.4 °F 30.3 in West 5.2 mph 8.1 mph 93% 0 in 134 W/m2
13:44 39.4 °F 37.6 °F 30.3 in West 5 mph 9.2 mph 93% 0 in 156 W/m2
13:49 39.4 °F 37.6 °F 30.3 in West 3.8 mph 9 mph 93% 0 in 151 W/m2
13:54 39.4 °F 37.6 °F 30.3 in West 3.6 mph 7 mph 93% 0 in 113 W/m2
13:59 39.6 °F 37.8 °F 30.3 in WSW 4.5 mph 7 mph 93.2% 0 in 134 W/m2
14:04 39.7 °F 37.8 °F 30.3 in WSW 5.2 mph 8.1 mph 93% 0 in 139 W/m2
14:09 39.7 °F 37.9 °F 30.3 in NW 2.9 mph 8 mph 93% 0 in 128 W/m2
14:14 40.1 °F 38.1 °F 30.3 in NW 3.4 mph 6 mph 92.6% 0 in 104 W/m2
14:19 39.9 °F 37.8 °F 30.3 in NW 2.2 mph 6 mph 92% 0 in 155 W/m2
14:24 39.7 °F 37.8 °F 30.3 in North 1.1 mph 5 mph 92.8% 0 in 97 W/m2
14:29 40.1 °F 38.1 °F 30.3 in NNW 3.4 mph 6.9 mph 92.7% 0 in 102 W/m2
14:34 39.9 °F 37.8 °F 30.3 in WNW 2.5 mph 7 mph 92% 0 in 118 W/m2
14:39 39.6 °F 37.6 °F 30.3 in NW 0.9 mph 5 mph 92.3% 0 in 118 W/m2
14:44 39.6 °F 37.6 °F 30.3 in NNW 1.1 mph 4 mph 92.6% 0 in 109 W/m2
14:49 39.7 °F 37.8 °F 30.3 in NW 3.2 mph 6 mph 92.3% 0 in 123 W/m2
14:54 39.9 °F 37.9 °F 30.3 in NW 2.9 mph 5.8 mph 92.2% 0 in 105 W/m2
14:59 39.7 °F 37.8 °F 30.3 in WNW 3.7 mph 7 mph 92% 0 in 125 W/m2
15:04 39.6 °F 37.8 °F 30.3 in West 4.1 mph 7 mph 93% 0 in 123 W/m2
15:09 39.6 °F 37.6 °F 30.3 in WNW 3.1 mph 7 mph 92.9% 0 in 123 W/m2
15:14 39.6 °F 37.6 °F 30.3 in West 2.9 mph 6 mph 92.8% 0 in 116 W/m2
15:19 39.9 °F 37.9 °F 30.3 in NW 1.9 mph 6 mph 92.6% 0 in 135 W/m2
15:24 40.1 °F 37.9 °F 30.3 in NW 2.9 mph 5 mph 92.2% 0 in 135 W/m2
15:29 40.1 °F 38.1 °F 30.3 in West 4.3 mph 7 mph 92% 0 in 139 W/m2
15:34 40.1 °F 37.9 °F 30.3 in West 3.6 mph 8 mph 92% 0 in 137 W/m2
15:39 39.9 °F 37.8 °F 30.3 in West 5.4 mph 8.1 mph 92% 0 in 104 W/m2
15:44 39.6 °F 37.6 °F 30.3 in WSW 4.8 mph 8.1 mph 92.4% 0 in 125 W/m2
15:49 39.6 °F 37.8 °F 30.3 in WSW 5.3 mph 9.2 mph 93% 0 in 141 W/m2
15:54 39.7 °F 37.8 °F 30.3 in West 4.1 mph 9 mph 93% 0 in 127 W/m2
15:59 39.6 °F 37.8 °F 30.3 in WSW 4.3 mph 7 mph 93% 0 in 95 W/m2
16:04 39.4 °F 37.6 °F 30.3 in WSW 4.4 mph 7 mph 93% 0 in 107 W/m2
16:09 39.2 °F 37.4 °F 30.3 in WSW 4.3 mph 7 mph 93% 0 in 72 W/m2
16:14 39 °F 37.2 °F 30.3 in WNW 2.3 mph 7 mph 93% 0 in 46 W/m2
16:19 39.2 °F 37.2 °F 30.3 in NW 3.3 mph 5.8 mph 93% 0 in 35 W/m2
16:24 38.8 °F 37 °F 30.3 in West 1.4 mph 6 mph 93.1% 0 in 39 W/m2
16:29 38.7 °F 37 °F 30.3 in SSW 1.4 mph 3.5 mph 93.7% 0 in 62 W/m2
16:34 38.7 °F 37 °F 30.3 in WNW 1.8 mph 4 mph 94% 0 in 35 W/m2
16:39 38.7 °F 37 °F 30.3 in West 3.2 mph 5 mph 93.6% 0 in 28 W/m2
16:44 38.5 °F 36.9 °F 30.3 in WNW 2.1 mph 5 mph 93.5% 0 in 37 W/m2
16:49 38.5 °F 36.9 °F 30.3 in NW 2.7 mph 5 mph 94% 0 in 25 W/m2
16:54 38.3 °F 36.7 °F 30.3 in West 2.8 mph 5 mph 94% 0 in 14 W/m2
16:59 37.9 °F 36.3 °F 30.3 in WSW 1.3 mph 4 mph 94% 0 in 14 W/m2
17:04 37.8 °F 36.1 °F 30.3 in WSW 1.1 mph 3 mph 94% 0 in 14 W/m2
17:09 37.6 °F 36 °F 30.3 in West 0.9 mph 2.3 mph 94.3% 0 in 12 W/m2
17:14 37.2 °F 36 °F 30.3 in West 0.5 mph 2.3 mph 94.9% 0 in 9 W/m2
17:19 37 °F 35.8 °F 30.3 in West 0.3 mph 2.3 mph 95% 0 in 5 W/m2
17:24 36.9 °F 35.6 °F 30.3 in WNW 1.2 mph 3.5 mph 95% 0 in 0 W/m2
17:29 36.7 °F 35.4 °F 30.3 in WNW 1.5 mph 3.5 mph 95% 0 in 0 W/m2
17:34 36.5 °F 35.1 °F 30.3 in WNW 3 mph 5 mph 95% 0 in 0 W/m2
17:39 36.3 °F 35.1 °F 30.3 in WNW 3.7 mph 6 mph 95% 0 in 0 W/m2
17:44 36.1 °F 34.9 °F 30.3 in West 4.2 mph 6 mph 95% 0 in 0 W/m2
17:49 36 °F 34.9 °F 30.3 in West 2.2 mph 4.6 mph 95.7% 0 in 0 W/m2
17:54 35.8 °F 34.7 °F 30.3 in SE 2.4 mph 5 mph 96% 0 in 0 W/m2
17:59 35.6 °F 34.7 °F 30.3 in SW 4.2 mph 6 mph 96% 0 in 0 W/m2
18:04 35.6 °F 34.5 °F 30.3 in SW 2.4 mph 6 mph 96% 0 in 0 W/m2
18:09 35.6 °F 34.5 °F 30.3 in WSW 1.6 mph 5 mph 96% 0 in 0 W/m2
18:14 35.6 °F 34.5 °F 30.3 in WSW 2.2 mph 4 mph 96% 0 in 0 W/m2
18:19 35.6 °F 34.5 °F 30.3 in WSW 2.9 mph 4 mph 96% 0 in 0 W/m2
18:24 35.4 °F 34.5 °F 30.3 in WSW 3.2 mph 5 mph 96% 0 in 0 W/m2
18:29 35.4 °F 34.5 °F 30.3 in WSW 1.6 mph 5 mph 96% 0 in 0 W/m2
18:34 35.4 °F 34.5 °F 30.3 in WSW 1.2 mph 3.5 mph 96% 0 in 0 W/m2
18:39 35.4 °F 34.5 °F 30.3 in WSW 2.3 mph 4 mph 96% 0 in 0 W/m2
18:44 35.4 °F 34.5 °F 30.3 in West 3 mph 5 mph 96% 0 in 0 W/m2
18:49 35.4 °F 34.3 °F 30.3 in WSW 2.5 mph 5 mph 96% 0 in 0 W/m2
18:54 35.4 °F 34.3 °F 30.3 in SW 2.5 mph 4 mph 96% 0 in 0 W/m2
18:59 35.2 °F 34.5 °F 30.3 in WSW 2.3 mph 4 mph 96.8% 0 in 0 W/m2
19:04 35.2 °F 34.5 °F 30.4 in SW 2.3 mph 4 mph 97% 0 in 0 W/m2
19:09 35.1 °F 34.3 °F 30.4 in WSW 2.3 mph 4 mph 97% 0 in 0 W/m2
19:14 34.9 °F 34.2 °F 30.3 in WSW 2.7 mph 4 mph 96.8% 0 in 0 W/m2
19:19 34.7 °F 34 °F 30.3 in WSW 2.9 mph 4 mph 97% 0 in 0 W/m2
19:24 34.5 °F 33.6 °F 30.4 in West 3.6 mph 5 mph 97% 0 in 0 W/m2
19:29 34.3 °F 33.6 °F 30.4 in West 3.5 mph 6 mph 97% 0 in 0 W/m2
19:34 34.3 °F 33.6 °F 30.4 in West 5 mph 8 mph 97% 0 in 0 W/m2
19:39 34.3 °F 33.6 °F 30.4 in West 5 mph 8.1 mph 97% 0 in 0 W/m2
19:44 34.3 °F 33.6 °F 30.4 in West 4.9 mph 7 mph 97% 0 in 0 W/m2
19:49 34.3 °F 33.6 °F 30.4 in WSW 2.6 mph 7 mph 97% 0 in 0 W/m2
19:54 34.3 °F 33.6 °F 30.4 in WSW 2.9 mph 6 mph 97% 0 in 0 W/m2
19:59 34.3 °F 33.6 °F 30.4 in West 1.9 mph 6 mph 97% 0 in 0 W/m2
20:04 34.3 °F 33.6 °F 30.4 in South 1.9 mph 6 mph 97% 0 in 0 W/m2
20:09 34.3 °F 33.6 °F 30.4 in SSW 3.3 mph 5 mph 97% 0 in 0 W/m2
20:14 34.2 °F 33.4 °F 30.4 in SW 2.9 mph 5 mph 97% 0 in 0 W/m2
20:19 34.2 °F 33.3 °F 30.4 in WSW 1.9 mph 5 mph 97% 0 in 0 W/m2
20:24 34 °F 33.3 °F 30.4 in WSW 2.4 mph 4 mph 97% 0 in 0 W/m2
20:29 34 °F 33.1 °F 30.4 in WSW 2.6 mph 4 mph 97% 0 in 0 W/m2
20:34 33.8 °F 33.1 °F 30.4 in WSW 2.5 mph 4 mph 97% 0 in 0 W/m2
20:39 33.6 °F 32.9 °F 30.4 in SW 1.7 mph 3.5 mph 97% 0 in 0 W/m2
20:44 33.6 °F 32.7 °F 30.4 in WSW 1.6 mph 3.5 mph 97% 0 in 0 W/m2
20:49 33.4 °F 32.7 °F 30.4 in SSW 0.6 mph 3 mph 97% 0 in 0 W/m2
20:54 33.4 °F 32.5 °F 30.4 in SW 0.8 mph 2.3 mph 97% 0 in 0 W/m2
20:59 33.3 °F 32.5 °F 30.4 in WSW 2.2 mph 4 mph 97.2% 0 in 0 W/m2
21:04 33.3 °F 32.4 °F 30.4 in West 2.2 mph 4 mph 97% 0 in 0 W/m2
21:09 33.1 °F 32.4 °F 30.4 in North 1.4 mph 4 mph 97% 0 in 0 W/m2
21:14 33.1 °F 32.4 °F 30.4 in North 1.2 mph 3 mph 97% 0 in 0 W/m2
21:19 33.1 °F 32.4 °F 30.4 in West 1 mph 3 mph 97.4% 0 in 0 W/m2
21:24 32.9 °F 32.5 °F 30.4 in SSW 1.7 mph 3.5 mph 98% 0 in 0 W/m2
21:29 32.9 °F 32.4 °F 30.4 in South 0.7 mph 2.3 mph 98% 0 in 0 W/m2
21:34 32.7 °F 32.2 °F 30.4 in East 2.2 mph 5 mph 98% 0 in 0 W/m2
21:39 32.5 °F 31.8 °F 30.4 in ENE 1.7 mph 5 mph 97% 0 in 0 W/m2
21:44 32.5 °F 31.6 °F 30.4 in NE 2.5 mph 4 mph 97.2% 0 in 0 W/m2
21:49 32.4 °F 31.8 °F 30.4 in ENE 1.2 mph 4 mph 97.8% 0 in 0 W/m2
21:54 32.2 °F 31.5 °F 30.4 in ENE 0.9 mph 3.5 mph 97.2% 0 in 0 W/m2
21:59 32 °F 31.3 °F 30.4 in SW 0.7 mph 3.5 mph 97% 0 in 0 W/m2
22:04 32 °F 31.3 °F 30.4 in North 2.4 mph 5 mph 97% 0 in 0 W/m2
22:09 32 °F 31.5 °F 30.4 in ENE 2.9 mph 7 mph 97.6% 0 in 0 W/m2
22:14 31.8 °F 31.3 °F 30.4 in ENE 6.9 mph 11.5 mph 98% 0 in 0 W/m2
22:19 31.6 °F 30.9 °F 30.4 in East 4 mph 12 mph 97.5% 0 in 0 W/m2
22:24 31.6 °F 30.7 °F 30.4 in NE 1.9 mph 9 mph 97.1% 0 in 0 W/m2
22:29 31.6 °F 31.1 °F 30.4 in NW 1.6 mph 3.5 mph 97.8% 0 in 0 W/m2
22:34 31.6 °F 31.1 °F 30.4 in NNE 2.3 mph 5 mph 98% 0 in 0 W/m2
22:39 31.5 °F 31.1 °F 30.4 in ENE 1.9 mph 5 mph 98% 0 in 0 W/m2
22:44 31.5 °F 30.9 °F 30.4 in ENE 2.8 mph 5 mph 98% 0 in 0 W/m2
22:49 31.3 °F 30.9 °F 30.4 in ENE 1 mph 5 mph 98% 0 in 0 W/m2
22:54 31.3 °F 30.7 °F 30.4 in SW 2.2 mph 5 mph 98% 0 in 0 W/m2
22:59 31.3 °F 30.7 °F 30.4 in SW 1.3 mph 5 mph 98% 0 in 0 W/m2
23:04 31.3 °F 30.7 °F 30.4 in WSW 2.1 mph 5 mph 98% 0 in 0 W/m2
23:09 31.1 °F 30.6 °F 30.4 in WSW 2.1 mph 4 mph 98% 0 in 0 W/m2
23:14 31.1 °F 30.6 °F 30.4 in WSW 0.7 mph 3.5 mph 98% 0 in 0 W/m2
23:19 30.9 °F 30.4 °F 30.4 in ESE 2.9 mph 7 mph 98% 0 in 0 W/m2
23:24 30.7 °F 30.2 °F 30.4 in ESE 4.5 mph 8.1 mph 98% 0 in 0 W/m2
23:29 30.6 °F 30 °F 30.4 in ESE 3.5 mph 8 mph 98% 0 in 0 W/m2
23:34 30.6 °F 30 °F 30.4 in SE 1.6 mph 6 mph 98% 0 in 0 W/m2
23:39 30.6 °F 30 °F 30.4 in SE 1.4 mph 3.5 mph 98% 0 in 0 W/m2
23:44 30.6 °F 30 °F 30.4 in WSW 2.1 mph 4 mph 98% 0 in 0 W/m2
23:49 30.6 °F 30 °F 30.4 in WSW 0.8 mph 3 mph 98% 0 in 0 W/m2
23:54 30.6 °F 30 °F 30.4 in WSW 0.7 mph 2.3 mph 98% 0 in 0 W/m2
23:59 30.6 °F 30 °F 30.4 in SW 0.9 mph 3 mph 98% 0 in 0 W/m2
Stazione Meteorologica MeteoMincio Rivalta s/M (MN)
Con i complimenti di Weather Underground - 4 mb


METEO PILLOLE
Il luogo più caldo della Terra
Dallol - Etiopia
La temperatura media dal 1960 al 1966 è stata di 34,5°C.

Do NOT follow this link or you will be banned from the site!